createdAt,value
2019-05-20T00:03:03.133Z,8.60
2019-05-20T00:06:09.133Z,6.23
2019-05-20T00:09:15.022Z,3.70
2019-05-20T00:12:20.743Z,5.80
2019-05-20T00:15:26.412Z,3.33
2019-05-20T00:18:32.170Z,4.60
2019-05-20T00:21:37.940Z,7.83
2019-05-20T00:24:43.681Z,4.93
2019-05-20T00:27:49.527Z,5.83
2019-05-20T00:30:55.231Z,6.80
2019-05-20T00:34:00.914Z,6.10
2019-05-20T00:37:09.963Z,8.50
2019-05-20T00:40:15.866Z,8.57
2019-05-20T00:43:21.576Z,8.03
2019-05-20T00:46:27.259Z,5.53
2019-05-20T00:49:33.107Z,5.53
2019-05-20T00:52:38.926Z,5.03
2019-05-20T00:55:44.702Z,6.00
2019-05-20T00:58:50.414Z,5.47
2019-05-20T01:01:56.085Z,6.20
2019-05-20T01:05:01.775Z,5.03
2019-05-20T01:08:07.465Z,6.07
2019-05-20T01:11:13.187Z,7.20
2019-05-20T01:14:18.917Z,7.67
2019-05-20T01:17:24.663Z,7.73
2019-05-20T01:20:30.383Z,8.27
2019-05-20T01:23:36.037Z,7.63
2019-05-20T01:26:41.743Z,4.77
2019-05-20T01:29:47.494Z,8.63
2019-05-20T01:32:53.169Z,4.00
2019-05-20T01:35:58.908Z,4.23
2019-05-20T01:39:05.416Z,5.43
2019-05-20T01:42:11.196Z,6.67
2019-05-20T01:45:18.055Z,7.30
2019-05-20T01:48:23.744Z,5.13
2019-05-20T01:51:29.410Z,4.77
2019-05-20T01:54:35.070Z,7.07
2019-05-20T01:57:40.791Z,8.20
2019-05-20T02:00:46.541Z,4.30
2019-05-20T02:03:52.274Z,8.27
2019-05-20T02:07:01.344Z,6.10
2019-05-20T02:10:07.589Z,6.10
2019-05-20T02:13:13.329Z,10.33
2019-05-20T02:16:19.683Z,4.63
2019-05-20T02:19:25.354Z,7.37
2019-05-20T02:22:31.077Z,6.10
2019-05-20T02:25:36.897Z,10.30
2019-05-20T02:28:44.438Z,6.07
2019-05-20T02:31:50.204Z,8.90
2019-05-20T02:34:57.443Z,4.43
2019-05-20T02:38:03.454Z,7.50
2019-05-20T02:41:09.349Z,6.37
2019-05-20T02:44:17.589Z,9.10
2019-05-20T02:47:30.894Z,5.67
2019-05-20T02:50:39.322Z,7.97
2019-05-20T02:53:50.530Z,10.10
2019-05-20T02:56:57.486Z,6.17
2019-05-20T03:00:03.325Z,7.70
2019-05-20T03:03:10.747Z,5.20
2019-05-20T03:06:16.931Z,8.30
2019-05-20T03:09:22.607Z,7.30
2019-05-20T03:12:28.420Z,6.13
2019-05-20T03:15:34.116Z,9.70
2019-05-20T03:18:39.824Z,8.33
2019-05-20T03:21:45.479Z,6.93
2019-05-20T03:24:51.220Z,7.80
2019-05-20T03:27:56.906Z,8.83
2019-05-20T03:31:02.646Z,9.70
2019-05-20T03:34:08.487Z,7.73
2019-05-20T03:37:14.136Z,12.27
2019-05-20T03:40:19.841Z,6.27
2019-05-20T03:43:25.563Z,5.93
2019-05-20T03:46:31.334Z,7.57
2019-05-20T03:49:37.009Z,7.50
2019-05-20T03:52:42.741Z,16.03
2019-05-20T03:55:48.418Z,7.67
2019-05-20T03:58:54.111Z,8.93
2019-05-20T04:01:59.876Z,7.27
2019-05-20T04:05:05.883Z,7.90
2019-05-20T04:08:11.829Z,10.90
2019-05-20T04:11:17.535Z,7.27
2019-05-20T04:14:23.306Z,7.20
2019-05-20T04:17:28.969Z,9.33
2019-05-20T04:20:34.904Z,11.47
2019-05-20T04:23:41.003Z,8.70
2019-05-20T04:26:47.139Z,8.70
2019-05-20T04:29:52.820Z,8.77
2019-05-20T04:32:58.604Z,10.23
2019-05-20T04:36:04.372Z,9.23
2019-05-20T04:39:10.043Z,12.83
2019-05-20T04:42:15.726Z,12.60
2019-05-20T04:45:21.544Z,10.77
2019-05-20T04:48:27.204Z,9.87
2019-05-20T04:51:32.919Z,11.30
2019-05-20T04:54:38.626Z,11.97
2019-05-20T04:57:44.294Z,14.23
2019-05-20T05:00:57.532Z,10.33
2019-05-20T05:04:03.195Z,12.77
2019-05-20T05:07:08.981Z,11.80
2019-05-20T05:10:15.192Z,13.10
2019-05-20T05:13:21.751Z,9.77
2019-05-20T05:16:27.596Z,13.47
2019-05-20T05:19:33.549Z,12.47
2019-05-20T05:22:39.316Z,13.37
2019-05-20T05:25:45.273Z,9.73
2019-05-20T05:28:51.949Z,15.70
2019-05-20T05:31:57.779Z,10.67
2019-05-20T05:35:03.455Z,14.50
2019-05-20T05:38:09.349Z,15.97
2019-05-20T05:41:15.101Z,12.10
2019-05-20T05:44:20.787Z,11.83
2019-05-20T05:47:26.484Z,11.90
2019-05-20T05:50:36.749Z,10.20
2019-05-20T05:53:42.149Z,11.50
2019-05-20T05:56:47.889Z,12.97
2019-05-20T05:59:53.707Z,8.77
2019-05-20T06:02:59.365Z,16.57
2019-05-20T06:06:12.275Z,17.53
2019-05-20T06:09:12.653Z,12.80
2019-05-20T06:12:18.335Z,11.13
2019-05-20T06:15:24.875Z,11.03
2019-05-20T06:18:30.538Z,9.40
2019-05-20T06:21:36.272Z,10.20
2019-05-20T06:24:41.931Z,9.53
2019-05-20T06:27:47.658Z,9.30
2019-05-20T06:30:53.321Z,9.37
2019-05-20T06:33:59.246Z,10.73
2019-05-20T06:37:07.524Z,13.70
2019-05-20T06:40:13.617Z,13.10
2019-05-20T06:43:19.380Z,10.70
2019-05-20T06:46:27.963Z,8.43
2019-05-20T06:49:33.632Z,6.87
2019-05-20T06:52:39.335Z,14.17
2019-05-20T06:55:45.081Z,9.90
2019-05-20T06:58:50.813Z,12.77
2019-05-20T07:01:56.821Z,10.47
2019-05-20T07:05:03.671Z,10.40
2019-05-20T07:08:09.339Z,6.93
2019-05-20T07:11:15.073Z,13.80
2019-05-20T07:14:20.901Z,7.37
2019-05-20T07:17:29.548Z,5.33
2019-05-20T07:20:50.187Z,10.40
2019-05-20T07:23:57.243Z,5.43
2019-05-20T07:27:02.977Z,12.23
2019-05-20T07:30:09.121Z,11.03
2019-05-20T07:33:14.863Z,13.60
2019-05-20T07:36:25.945Z,7.03
2019-05-20T07:39:31.680Z,5.70
2019-05-20T07:42:37.413Z,10.90
2019-05-20T07:45:43.902Z,9.47
2019-05-20T07:48:50.492Z,8.47
2019-05-20T07:51:57.196Z,5.77
2019-05-20T07:55:03.868Z,10.43
2019-05-20T07:58:11.018Z,9.20
2019-05-20T08:01:17.236Z,9.23
2019-05-20T08:04:23.455Z,6.90
2019-05-20T08:07:49.875Z,9.27
2019-05-20T08:10:36.971Z,7.83
2019-05-20T08:13:42.844Z,8.43
2019-05-20T08:16:48.530Z,6.23
2019-05-20T08:19:54.219Z,7.47
2019-05-20T08:22:59.954Z,8.33
2019-05-20T08:26:05.709Z,7.17
2019-05-20T08:29:11.403Z,10.30
2019-05-20T08:32:17.058Z,5.30
2019-05-20T08:35:25.241Z,7.83
2019-05-20T08:38:30.921Z,6.70
2019-05-20T08:41:36.830Z,8.13
2019-05-20T08:44:42.690Z,14.70
2019-05-20T08:47:50.187Z,7.93
2019-05-20T08:50:55.987Z,11.33
2019-05-20T08:54:03.360Z,8.87
2019-05-20T08:57:09.092Z,5.43
2019-05-20T09:00:23.207Z,7.07
2019-05-20T09:03:30.485Z,9.10
2019-05-20T09:06:36.469Z,13.53
2019-05-20T09:09:42.287Z,5.00
2019-05-20T09:12:48.077Z,8.03
2019-05-20T09:15:54.835Z,8.60
2019-05-20T09:19:00.512Z,7.47
2019-05-20T09:22:06.236Z,5.40
2019-05-20T09:25:14.189Z,8.17
2019-05-20T09:28:20.443Z,6.03
2019-05-20T09:31:26.534Z,11.40
2019-05-20T09:34:32.569Z,8.47
2019-05-20T09:37:39.503Z,5.57
2019-05-20T09:40:47.791Z,8.60
2019-05-20T09:43:53.532Z,7.33
2019-05-20T09:46:59.246Z,9.57
2019-05-20T09:50:05.972Z,7.47
2019-05-20T09:53:11.829Z,9.00
2019-05-20T09:56:17.627Z,9.33
2019-05-20T09:59:23.465Z,9.10
2019-05-20T10:02:34.507Z,8.13
2019-05-20T10:05:37.632Z,4.67
2019-05-20T10:08:45.289Z,5.67
2019-05-20T10:11:51.643Z,6.77
2019-05-20T10:14:57.385Z,10.33
2019-05-20T10:18:03.277Z,11.23
2019-05-20T10:21:09.071Z,6.07
2019-05-20T10:24:14.768Z,8.20
2019-05-20T10:27:20.621Z,5.20
2019-05-20T10:30:26.494Z,7.53
2019-05-20T10:33:32.216Z,12.27
2019-05-20T10:36:37.880Z,4.47
2019-05-20T10:39:43.656Z,9.43
2019-05-20T10:42:49.470Z,7.50
2019-05-20T10:45:55.234Z,5.83
2019-05-20T10:49:02.135Z,6.97
2019-05-20T10:52:07.900Z,7.47
2019-05-20T10:55:13.716Z,5.78
2019-05-20T10:58:19.527Z,8.93
2019-05-20T11:01:25.266Z,6.40
2019-05-20T11:04:30.959Z,7.35
2019-05-20T11:07:36.867Z,4.73
2019-05-20T11:10:42.740Z,5.35
2019-05-20T11:13:48.461Z,6.12
2019-05-20T11:16:54.168Z,7.25
2019-05-20T11:19:59.866Z,5.45
2019-05-20T11:23:05.621Z,5.67
2019-05-20T11:26:11.412Z,5.33
2019-05-20T11:29:17.121Z,3.87
2019-05-20T11:32:22.860Z,8.27
2019-05-20T11:35:28.663Z,4.57
2019-05-20T11:38:34.587Z,5.17
2019-05-20T11:41:52.613Z,4.60
2019-05-20T11:44:47.876Z,9.73
2019-05-20T11:47:53.605Z,5.87
2019-05-20T11:50:59.284Z,4.43
2019-05-20T11:54:04.995Z,5.37
2019-05-20T11:57:10.672Z,7.10
2019-05-20T12:00:17.089Z,5.77
2019-05-20T12:03:22.775Z,7.10
2019-05-20T12:06:28.489Z,10.40
2019-05-20T12:09:48.300Z,8.83
2019-05-20T12:12:41.515Z,6.85
2019-05-20T12:15:47.217Z,9.40
2019-05-20T12:18:52.934Z,6.58
2019-05-20T12:21:58.665Z,6.20
2019-05-20T12:25:04.647Z,5.28
2019-05-20T12:28:10.695Z,4.67
2019-05-20T12:31:16.478Z,10.88
2019-05-20T12:34:22.309Z,7.45
2019-05-20T12:37:27.975Z,5.55
2019-05-20T12:40:33.879Z,6.65
2019-05-20T12:43:39.527Z,4.80
2019-05-20T12:46:45.246Z,5.55
2019-05-20T12:49:51.087Z,7.95
2019-05-20T12:52:56.781Z,8.55
2019-05-20T12:56:02.536Z,8.78
2019-05-20T12:59:08.273Z,10.08
2019-05-20T13:02:17.405Z,6.47
2019-05-20T13:05:23.297Z,9.43
2019-05-20T13:08:29.543Z,6.08
2019-05-20T13:11:38.962Z,6.35
2019-05-20T13:14:44.678Z,5.30
2019-05-20T13:17:50.999Z,7.22
2019-05-20T13:20:56.776Z,6.22
2019-05-20T13:24:02.448Z,3.65
2019-05-20T13:27:08.267Z,5.10
2019-05-20T13:30:14.691Z,7.40
2019-05-20T13:33:20.355Z,6.65
2019-05-20T13:36:26.058Z,16.90
2019-05-20T13:39:31.760Z,6.67
2019-05-20T13:42:37.613Z,4.93
2019-05-20T13:45:43.383Z,6.73
2019-05-20T13:48:50.421Z,8.60
2019-05-20T13:51:56.102Z,9.58
2019-05-20T13:55:01.816Z,10.68
2019-05-20T13:58:07.595Z,10.65
2019-05-20T14:01:13.335Z,4.62
2019-05-20T14:04:18.979Z,7.67
2019-05-20T14:07:24.781Z,7.20
2019-05-20T14:10:30.482Z,6.95
2019-05-20T14:13:36.163Z,10.80
2019-05-20T14:16:41.860Z,15.80
2019-05-20T14:19:47.632Z,8.13
2019-05-20T14:22:56.388Z,6.83
2019-05-20T14:26:02.219Z,8.80
2019-05-20T14:29:08.007Z,6.83
2019-05-20T14:32:13.696Z,13.97
2019-05-20T14:35:19.576Z,9.63
2019-05-20T14:38:25.419Z,26.43
2019-05-20T14:41:31.167Z,30.93
2019-05-20T14:44:36.840Z,19.57
2019-05-20T14:47:43.219Z,9.63
2019-05-20T14:50:51.009Z,12.33
2019-05-20T14:53:58.499Z,17.13
2019-05-20T14:57:05.980Z,12.20
2019-05-20T15:00:14.430Z,10.80
2019-05-20T15:03:21.577Z,24.60
2019-05-20T15:06:29.247Z,18.93
2019-05-20T15:09:36.049Z,12.27
2019-05-20T15:12:42.652Z,21.00
2019-05-20T15:15:48.817Z,13.70
2019-05-20T15:18:56.082Z,8.20
2019-05-20T15:22:04.118Z,8.30
2019-05-20T15:25:11.791Z,6.20
2019-05-20T15:28:18.096Z,6.20
2019-05-20T15:31:24.444Z,10.37
2019-05-20T15:34:32.189Z,3.93
2019-05-20T15:37:40.344Z,5.20
2019-05-20T15:40:46.877Z,4.43
2019-05-20T15:43:53.868Z,3.97
2019-05-20T15:47:00.791Z,3.23
2019-05-20T15:50:10.012Z,11.00
2019-05-20T15:53:42.178Z,4.03
2019-05-20T15:56:49.622Z,8.30
2019-05-20T15:59:55.447Z,6.17
2019-05-20T16:03:01.305Z,8.40
2019-05-20T16:06:07.147Z,3.53
2019-05-20T16:09:16.868Z,6.90
2019-05-20T16:12:20.384Z,6.63
2019-05-20T16:15:26.040Z,6.13
2019-05-20T16:18:31.701Z,4.20
2019-05-20T16:21:37.505Z,6.73
2019-05-20T16:24:45.328Z,9.13
2019-05-20T16:27:50.714Z,4.67
2019-05-20T16:30:56.373Z,8.50
2019-05-20T16:34:02.148Z,4.20
2019-05-20T16:37:07.915Z,5.30
2019-05-20T16:40:14.214Z,7.57
2019-05-20T16:43:20.034Z,5.27
2019-05-20T16:46:25.705Z,5.43
2019-05-20T16:49:31.426Z,3.83
2019-05-20T16:52:37.151Z,3.80
2019-05-20T16:55:42.885Z,5.50
2019-05-20T16:58:48.546Z,5.97
2019-05-20T17:01:54.247Z,4.47
2019-05-20T17:05:00.180Z,9.10
2019-05-20T17:08:06.283Z,5.90
2019-05-20T17:11:12.034Z,6.70
2019-05-20T17:14:21.383Z,7.27
2019-05-20T17:17:27.069Z,6.47
2019-05-20T17:20:32.760Z,6.13
2019-05-20T17:23:38.423Z,10.07
2019-05-20T17:26:44.182Z,6.63
2019-05-20T17:29:50.237Z,3.43
2019-05-20T17:32:55.919Z,6.93
2019-05-20T17:36:01.706Z,6.67
2019-05-20T17:39:08.528Z,6.00
2019-05-20T17:42:14.291Z,4.00
2019-05-20T17:45:20.208Z,7.17
2019-05-20T17:48:26.091Z,7.67
2019-05-20T17:51:33.318Z,3.63
2019-05-20T17:54:39.088Z,4.33
2019-05-20T17:57:44.782Z,4.73
2019-05-20T18:00:50.645Z,4.07
2019-05-20T18:03:56.380Z,3.63
2019-05-20T18:07:02.149Z,3.03
2019-05-20T18:10:08.968Z,3.37
2019-05-20T18:13:14.750Z,4.30
2019-05-20T18:16:20.516Z,7.30
2019-05-20T18:19:26.180Z,8.63
2019-05-20T18:22:31.952Z,5.93
2019-05-20T18:25:37.659Z,4.00
2019-05-20T18:28:43.325Z,6.03
2019-05-20T18:31:49.108Z,3.30
2019-05-20T18:34:54.868Z,2.70
2019-05-20T18:38:00.707Z,4.17
2019-05-20T18:41:06.497Z,4.10
2019-05-20T18:44:13.383Z,6.10
2019-05-20T18:47:19.171Z,3.47
2019-05-20T18:50:24.882Z,2.80
2019-05-20T18:53:30.670Z,2.40
2019-05-20T18:56:36.440Z,5.80
2019-05-20T18:59:42.242Z,3.13
2019-05-20T19:02:47.892Z,5.40
2019-05-20T19:05:53.564Z,3.50
2019-05-20T19:08:59.232Z,4.10
2019-05-20T19:12:05.074Z,4.17
2019-05-20T19:15:12.139Z,3.70
2019-05-20T19:18:17.900Z,3.77
2019-05-20T19:21:22.306Z,2.27
2019-05-20T19:24:27.858Z,2.73
2019-05-20T19:27:33.567Z,2.60
2019-05-20T19:30:39.233Z,4.73
2019-05-20T19:33:44.967Z,4.47
2019-05-20T19:36:50.654Z,4.07
2019-05-20T19:40:05.956Z,4.87
2019-05-20T19:43:13.242Z,3.33
2019-05-20T19:46:18.962Z,4.00
2019-05-20T19:49:26.245Z,2.93
2019-05-20T19:52:32.131Z,7.33
2019-05-20T19:55:37.751Z,4.97
2019-05-20T19:58:46.461Z,4.83
2019-05-20T20:01:56.109Z,4.93
2019-05-20T20:05:11.908Z,4.80
2019-05-20T20:08:09.743Z,5.03
2019-05-20T20:11:15.512Z,7.10
2019-05-20T20:14:21.221Z,6.10
2019-05-20T20:17:27.019Z,4.80
2019-05-20T20:20:32.833Z,5.07
2019-05-20T20:23:38.634Z,6.73
2019-05-20T20:26:44.436Z,6.10
2019-05-20T20:29:50.138Z,5.40
2019-05-20T20:32:55.828Z,5.37
2019-05-20T20:36:01.475Z,7.73
2019-05-20T20:39:09.582Z,6.67
2019-05-20T20:42:15.285Z,4.50
2019-05-20T20:45:21.107Z,6.30
2019-05-20T20:48:26.772Z,5.60
2019-05-20T20:51:32.460Z,5.70
2019-05-20T20:54:38.244Z,3.93
2019-05-20T20:57:43.893Z,6.60
2019-05-20T21:00:49.783Z,5.17
2019-05-20T21:03:55.460Z,8.80
2019-05-20T21:07:01.198Z,8.20
2019-05-20T21:10:07.812Z,8.27
2019-05-20T21:13:15.126Z,9.50
2019-05-20T21:16:21.038Z,8.37
2019-05-20T21:19:26.836Z,10.67
2019-05-20T21:22:32.542Z,8.20
2019-05-20T21:25:38.471Z,9.93
2019-05-20T21:28:44.419Z,12.83
2019-05-20T21:31:50.095Z,11.57
2019-05-20T21:34:55.811Z,11.27
2019-05-20T21:38:01.524Z,10.70
2019-05-20T21:41:07.229Z,14.73
2019-05-20T21:44:17.272Z,14.17
2019-05-20T21:47:28.243Z,18.27
2019-05-20T21:50:33.918Z,18.77
2019-05-20T21:53:39.626Z,17.27
2019-05-20T21:56:45.376Z,20.07
2019-05-20T21:59:51.108Z,20.77
2019-05-20T22:02:57.406Z,12.27
2019-05-20T22:06:03.339Z,16.60
2019-05-20T22:09:09.183Z,12.73
2019-05-20T22:12:15.018Z,13.37
2019-05-20T22:15:20.938Z,15.40
2019-05-20T22:18:27.271Z,11.67
2019-05-20T22:21:45.108Z,16.10
2019-05-20T22:24:50.887Z,10.47
2019-05-20T22:27:56.605Z,15.93
2019-05-20T22:31:06.803Z,11.07
2019-05-20T22:34:13.764Z,13.90
2019-05-20T22:37:19.461Z,10.50
2019-05-20T22:40:25.142Z,13.93
2019-05-20T22:43:30.889Z,14.97
2019-05-20T22:46:36.611Z,11.23
2019-05-20T22:49:42.287Z,14.00
2019-05-20T22:52:50.472Z,15.47
2019-05-20T22:55:56.158Z,12.47
2019-05-20T22:59:01.854Z,12.03
2019-05-20T23:02:07.576Z,19.23
2019-05-20T23:05:13.644Z,12.93
2019-05-20T23:08:19.331Z,13.37
2019-05-20T23:11:25.009Z,10.80
2019-05-20T23:14:33.019Z,12.47
2019-05-20T23:17:38.688Z,10.87
2019-05-20T23:20:44.386Z,9.07
2019-05-20T23:23:50.057Z,7.90
2019-05-20T23:26:55.725Z,10.10
2019-05-20T23:30:01.385Z,13.70
2019-05-20T23:33:09.136Z,15.13
2019-05-20T23:36:15.030Z,11.17
2019-05-20T23:39:20.703Z,11.90
2019-05-20T23:42:26.391Z,11.87
2019-05-20T23:45:32.113Z,8.10
2019-05-20T23:48:37.876Z,9.30
2019-05-20T23:51:43.720Z,10.03
2019-05-20T23:54:52.188Z,7.30
2019-05-20T23:57:57.851Z,8.70
